sensor_id;sensor_type;location;lat;lon;timestamp;P1;durP1;ratioP1;P2;durP2;ratioP2
20314;SDS011;10315;50.958;13.080;2023-07-31T00:08:52;3.97;;;1.53;;
20314;SDS011;10315;50.958;13.080;2023-07-31T00:18:54;4.67;;;1.77;;
20314;SDS011;10315;50.958;13.080;2023-07-31T00:28:57;5.27;;;1.90;;
20314;SDS011;10315;50.958;13.080;2023-07-31T00:38:59;3.07;;;1.40;;
20314;SDS011;10315;50.958;13.080;2023-07-31T00:49:02;6.50;;;1.90;;
20314;SDS011;10315;50.958;13.080;2023-07-31T00:59:03;1.77;;;1.50;;
20314;SDS011;10315;50.958;13.080;2023-07-31T01:09:08;3.47;;;2.03;;
20314;SDS011;10315;50.958;13.080;2023-07-31T01:19:21;7.00;;;1.80;;
20314;SDS011;10315;50.958;13.080;2023-07-31T01:29:29;3.60;;;1.77;;
20314;SDS011;10315;50.958;13.080;2023-07-31T01:39:37;8.70;;;1.87;;
20314;SDS011;10315;50.958;13.080;2023-07-31T01:49:40;4.90;;;1.70;;
20314;SDS011;10315;50.958;13.080;2023-07-31T01:59:42;4.33;;;1.60;;
20314;SDS011;10315;50.958;13.080;2023-07-31T02:09:46;4.70;;;1.50;;
20314;SDS011;10315;50.958;13.080;2023-07-31T02:19:48;2.27;;;2.07;;
20314;SDS011;10315;50.958;13.080;2023-07-31T02:29:51;3.43;;;1.80;;
20314;SDS011;10315;50.958;13.080;2023-07-31T02:39:52;4.97;;;2.07;;
20314;SDS011;10315;50.958;13.080;2023-07-31T02:49:55;4.13;;;2.27;;
20314;SDS011;10315;50.958;13.080;2023-07-31T02:59:57;4.33;;;2.63;;
20314;SDS011;10315;50.958;13.080;2023-07-31T03:10:00;13.03;;;3.10;;
20314;SDS011;10315;50.958;13.080;2023-07-31T03:20:02;8.97;;;3.00;;
20314;SDS011;10315;50.958;13.080;2023-07-31T03:30:07;9.87;;;3.23;;
20314;SDS011;10315;50.958;13.080;2023-07-31T03:40:09;9.77;;;4.03;;
20314;SDS011;10315;50.958;13.080;2023-07-31T03:50:13;10.67;;;4.30;;
20314;SDS011;10315;50.958;13.080;2023-07-31T04:00:15;6.33;;;3.30;;
20314;SDS011;10315;50.958;13.080;2023-07-31T04:10:18;15.17;;;4.63;;
20314;SDS011;10315;50.958;13.080;2023-07-31T04:20:19;9.50;;;4.23;;
20314;SDS011;10315;50.958;13.080;2023-07-31T04:30:22;12.63;;;4.17;;
20314;SDS011;10315;50.958;13.080;2023-07-31T04:40:25;9.07;;;4.23;;
20314;SDS011;10315;50.958;13.080;2023-07-31T04:50:30;11.00;;;4.23;;
20314;SDS011;10315;50.958;13.080;2023-07-31T05:00:33;10.33;;;4.00;;
20314;SDS011;10315;50.958;13.080;2023-07-31T05:10:36;13.20;;;3.50;;
20314;SDS011;10315;50.958;13.080;2023-07-31T05:20:40;10.33;;;3.97;;
20314;SDS011;10315;50.958;13.080;2023-07-31T05:30:43;7.63;;;4.20;;
20314;SDS011;10315;50.958;13.080;2023-07-31T05:40:45;9.10;;;3.70;;
20314;SDS011;10315;50.958;13.080;2023-07-31T05:50:48;7.37;;;3.80;;
20314;SDS011;10315;50.958;13.080;2023-07-31T06:00:50;9.20;;;3.87;;
20314;SDS011;10315;50.958;13.080;2023-07-31T06:10:53;9.30;;;3.83;;
20314;SDS011;10315;50.958;13.080;2023-07-31T06:20:55;12.45;;;3.47;;
20314;SDS011;10315;50.958;13.080;2023-07-31T06:30:58;8.82;;;2.90;;
20314;SDS011;10315;50.958;13.080;2023-07-31T06:41:00;6.20;;;2.80;;
20314;SDS011;10315;50.958;13.080;2023-07-31T06:51:03;4.57;;;1.88;;
20314;SDS011;10315;50.958;13.080;2023-07-31T07:01:05;2.58;;;1.80;;
20314;SDS011;10315;50.958;13.080;2023-07-31T07:11:08;5.68;;;2.60;;
20314;SDS011;10315;50.958;13.080;2023-07-31T07:21:10;4.97;;;2.20;;
20314;SDS011;10315;50.958;13.080;2023-07-31T07:31:17;7.22;;;2.20;;
20314;SDS011;10315;50.958;13.080;2023-07-31T07:41:18;3.30;;;2.00;;
20314;SDS011;10315;50.958;13.080;2023-07-31T07:51:21;6.25;;;1.90;;
20314;SDS011;10315;50.958;13.080;2023-07-31T08:01:23;5.85;;;2.00;;
20314;SDS011;10315;50.958;13.080;2023-07-31T08:11:26;3.90;;;2.20;;
20314;SDS011;10315;50.958;13.080;2023-07-31T08:21:28;5.80;;;2.55;;
20314;SDS011;10315;50.958;13.080;2023-07-31T08:31:31;4.18;;;2.10;;
20314;SDS011;10315;50.958;13.080;2023-07-31T08:41:36;5.85;;;3.33;;
20314;SDS011;10315;50.958;13.080;2023-07-31T08:51:42;6.78;;;2.10;;
20314;SDS011;10315;50.958;13.080;2023-07-31T09:01:46;8.50;;;2.53;;
20314;SDS011;10315;50.958;13.080;2023-07-31T09:11:52;3.25;;;2.05;;
20314;SDS011;10315;50.958;13.080;2023-07-31T09:21:54;3.65;;;2.22;;
20314;SDS011;10315;50.958;13.080;2023-07-31T09:31:57;6.13;;;2.45;;
20314;SDS011;10315;50.958;13.080;2023-07-31T09:42:01;4.55;;;2.03;;
20314;SDS011;10315;50.958;13.080;2023-07-31T09:52:04;6.20;;;2.22;;
20314;SDS011;10315;50.958;13.080;2023-07-31T10:02:14;4.43;;;2.30;;
20314;SDS011;10315;50.958;13.080;2023-07-31T10:12:20;3.28;;;2.05;;
20314;SDS011;10315;50.958;13.080;2023-07-31T10:22:26;5.82;;;2.17;;
20314;SDS011;10315;50.958;13.080;2023-07-31T10:32:30;4.40;;;1.88;;
20314;SDS011;10315;50.958;13.080;2023-07-31T10:42:34;3.63;;;2.00;;
20314;SDS011;10315;50.958;13.080;2023-07-31T10:52:38;3.85;;;1.98;;
20314;SDS011;10315;50.958;13.080;2023-07-31T11:02:40;4.57;;;2.22;;
20314;SDS011;10315;50.958;13.080;2023-07-31T11:12:43;4.55;;;1.88;;
20314;SDS011;10315;50.958;13.080;2023-07-31T11:22:46;3.30;;;1.95;;
20314;SDS011;10315;50.958;13.080;2023-07-31T11:32:50;2.92;;;1.58;;
20314;SDS011;10315;50.958;13.080;2023-07-31T11:42:52;3.58;;;1.80;;
20314;SDS011;10315;50.958;13.080;2023-07-31T11:52:56;3.30;;;1.55;;
20314;SDS011;10315;50.958;13.080;2023-07-31T12:03:00;4.72;;;2.13;;
20314;SDS011;10315;50.958;13.080;2023-07-31T12:13:04;3.75;;;1.60;;
20314;SDS011;10315;50.958;13.080;2023-07-31T12:23:07;4.65;;;1.73;;
20314;SDS011;10315;50.958;13.080;2023-07-31T12:33:16;4.97;;;2.08;;
20314;SDS011;10315;50.958;13.080;2023-07-31T12:43:20;7.32;;;1.80;;
20314;SDS011;10315;50.958;13.080;2023-07-31T12:53:23;6.03;;;1.73;;
20314;SDS011;10315;50.958;13.080;2023-07-31T13:03:24;7.03;;;1.95;;
20314;SDS011;10315;50.958;13.080;2023-07-31T13:13:27;4.60;;;1.77;;
20314;SDS011;10315;50.958;13.080;2023-07-31T13:23:30;5.65;;;1.73;;
20314;SDS011;10315;50.958;13.080;2023-07-31T13:33:33;7.10;;;1.90;;
20314;SDS011;10315;50.958;13.080;2023-07-31T13:43:35;9.02;;;2.30;;
20314;SDS011;10315;50.958;13.080;2023-07-31T13:53:38;2.17;;;1.83;;
20314;SDS011;10315;50.958;13.080;2023-07-31T14:03:39;4.50;;;2.00;;
20314;SDS011;10315;50.958;13.080;2023-07-31T14:13:42;3.33;;;2.03;;
20314;SDS011;10315;50.958;13.080;2023-07-31T14:23:44;4.30;;;1.88;;
20314;SDS011;10315;50.958;13.080;2023-07-31T14:33:47;5.47;;;1.83;;
20314;SDS011;10315;50.958;13.080;2023-07-31T14:43:49;6.75;;;2.00;;
20314;SDS011;10315;50.958;13.080;2023-07-31T14:53:52;5.22;;;1.65;;
20314;SDS011;10315;50.958;13.080;2023-07-31T15:03:54;5.13;;;1.65;;
20314;SDS011;10315;50.958;13.080;2023-07-31T15:13:59;6.15;;;2.15;;
20314;SDS011;10315;50.958;13.080;2023-07-31T15:24:01;4.93;;;2.05;;
20314;SDS011;10315;50.958;13.080;2023-07-31T15:34:04;2.45;;;1.80;;
20314;SDS011;10315;50.958;13.080;2023-07-31T15:44:06;3.65;;;1.70;;
20314;SDS011;10315;50.958;13.080;2023-07-31T15:54:12;3.28;;;2.10;;
20314;SDS011;10315;50.958;13.080;2023-07-31T16:04:13;3.33;;;1.90;;
20314;SDS011;10315;50.958;13.080;2023-07-31T16:14:16;5.43;;;2.10;;
20314;SDS011;10315;50.958;13.080;2023-07-31T16:24:18;4.55;;;2.15;;
20314;SDS011;10315;50.958;13.080;2023-07-31T16:34:21;2.70;;;2.20;;
20314;SDS011;10315;50.958;13.080;2023-07-31T16:44:24;4.88;;;2.33;;
20314;SDS011;10315;50.958;13.080;2023-07-31T16:54:27;3.38;;;2.20;;
20314;SDS011;10315;50.958;13.080;2023-07-31T17:04:29;3.47;;;2.10;;
20314;SDS011;10315;50.958;13.080;2023-07-31T17:14:33;5.30;;;1.70;;
20314;SDS011;10315;50.958;13.080;2023-07-31T17:24:34;4.40;;;2.17;;
20314;SDS011;10315;50.958;13.080;2023-07-31T17:34:37;9.27;;;3.08;;
20314;SDS011;10315;50.958;13.080;2023-07-31T17:44:39;5.95;;;2.53;;
20314;SDS011;10315;50.958;13.080;2023-07-31T17:54:42;4.50;;;2.38;;
20314;SDS011;10315;50.958;13.080;2023-07-31T18:04:44;4.60;;;2.10;;
20314;SDS011;10315;50.958;13.080;2023-07-31T18:14:47;4.38;;;1.98;;
20314;SDS011;10315;50.958;13.080;2023-07-31T18:24:49;5.68;;;2.40;;
20314;SDS011;10315;50.958;13.080;2023-07-31T18:34:52;5.38;;;2.40;;
20314;SDS011;10315;50.958;13.080;2023-07-31T18:44:53;4.15;;;2.45;;
20314;SDS011;10315;50.958;13.080;2023-07-31T18:54:56;6.32;;;2.55;;
20314;SDS011;10315;50.958;13.080;2023-07-31T19:04:58;5.38;;;2.50;;
20314;SDS011;10315;50.958;13.080;2023-07-31T19:15:09;6.28;;;2.40;;
20314;SDS011;10315;50.958;13.080;2023-07-31T19:25:11;5.82;;;2.60;;
20314;SDS011;10315;50.958;13.080;2023-07-31T19:35:14;4.63;;;2.65;;
20314;SDS011;10315;50.958;13.080;2023-07-31T19:45:16;4.57;;;2.50;;
20314;SDS011;10315;50.958;13.080;2023-07-31T19:55:19;6.18;;;2.70;;
20314;SDS011;10315;50.958;13.080;2023-07-31T20:05:21;4.82;;;2.45;;
20314;SDS011;10315;50.958;13.080;2023-07-31T20:15:24;4.80;;;2.25;;
20314;SDS011;10315;50.958;13.080;2023-07-31T20:25:25;5.57;;;3.00;;
20314;SDS011;10315;50.958;13.080;2023-07-31T20:35:28;6.53;;;2.70;;
20314;SDS011;10315;50.958;13.080;2023-07-31T20:45:30;5.82;;;2.55;;
20314;SDS011;10315;50.958;13.080;2023-07-31T20:55:34;11.60;;;2.85;;
20314;SDS011;10315;50.958;13.080;2023-07-31T21:05:35;9.65;;;2.88;;
20314;SDS011;10315;50.958;13.080;2023-07-31T21:15:41;7.05;;;2.03;;
20314;SDS011;10315;50.958;13.080;2023-07-31T21:25:43;5.57;;;2.70;;
20314;SDS011;10315;50.958;13.080;2023-07-31T21:35:49;5.28;;;2.72;;
20314;SDS011;10315;50.958;13.080;2023-07-31T21:45:50;6.63;;;2.50;;
20314;SDS011;10315;50.958;13.080;2023-07-31T21:55:54;4.93;;;2.30;;
20314;SDS011;10315;50.958;13.080;2023-07-31T22:05:55;3.72;;;2.20;;
20314;SDS011;10315;50.958;13.080;2023-07-31T22:15:58;6.43;;;2.80;;
20314;SDS011;10315;50.958;13.080;2023-07-31T22:26:00;5.07;;;2.50;;
20314;SDS011;10315;50.958;13.080;2023-07-31T22:36:03;6.88;;;2.92;;
20314;SDS011;10315;50.958;13.080;2023-07-31T22:46:05;6.88;;;2.90;;
20314;SDS011;10315;50.958;13.080;2023-07-31T22:56:08;10.70;;;3.15;;
20314;SDS011;10315;50.958;13.080;2023-07-31T23:06:09;3.97;;;2.75;;
20314;SDS011;10315;50.958;13.080;2023-07-31T23:16:12;7.93;;;3.50;;
20314;SDS011;10315;50.958;13.080;2023-07-31T23:26:14;6.85;;;4.03;;
20314;SDS011;10315;50.958;13.080;2023-07-31T23:36:17;8.70;;;3.83;;
20314;SDS011;10315;50.958;13.080;2023-07-31T23:46:19;8.63;;;3.40;;
20314;SDS011;10315;50.958;13.080;2023-07-31T23:56:22;7.88;;;3.75;;
